エカテリンブルク の空港の天気 - METARとTAF

コルツォヴォ空港 ( USSS / SVX ) - ロシア エカテリンブルク
飛行場実況気象(Metar)
観測時間08/11 12:30 YEKT (08/11 07:30 UTC)
風向・風速北北西 5m/s
視程10km以上
天気現象弱いしゅう雨
全天を覆う雲 雲底高度 240m
気温12℃
湿度94%
気圧1001hPa
METARUSSS 110730Z 33005MPS 9999 -SHRA OVC008CB 12/11 Q1001 R26R/290037 NOSIG RMK QFE730/0973
過去の天気等 Google飛行場航空写真 Wunderground天気予報

過去48時間のMETAR

飛行場予報(TAF)
発表時間: 8/11 10:00 YEKT (8/11 05:00 UTC)
予報対象時間: 11日11時 YEKT ~ 12日11時 YEKT
風向・風速北 7m/s 瞬間風速 18m/s
視程6000m
天気現象弱いしゅう雨
全天の8割程度の雲 雲底高度 210m
全天の8割程度の積乱雲 雲底高度 340m
11日11時 YEKT ~ 11日23時 YEKT に一時的に
天気現象弱い雷雨
全天の8割程度の雲 雲底高度 120m
全天の8割程度の積乱雲 雲底高度 340m
11日23時 YEKT から
風向・風速北北西 3m/s 瞬間風速 10m/s
視程3100m
天気現象弱いしゅう雨 もや
全天の8割程度の雲 雲底高度 340m
全天の4割程度の積乱雲 雲底高度 610m
TAF USSS 110500Z 1106/1206 35007G18MPS 6000 -SHRA BKN007 BKN011CB
TEMPO 1106/1118 -TSRA BKN004 BKN011CB
FM111800 34003G10MPS 3100 -SHRA BR BKN011 SCT020CB